sensor_id;sensor_type;location;lat;lon;timestamp;P1;durP1;ratioP1;P2;durP2;ratioP2
54875;SDS011;40764;48.472;8.166;2023-09-19T00:02:19;3.95;;;1.00;;
54875;SDS011;40764;48.472;8.166;2023-09-19T00:08:19;9.25;;;0.77;;
54875;SDS011;40764;48.472;8.166;2023-09-19T00:14:24;9.45;;;0.80;;
54875;SDS011;40764;48.472;8.166;2023-09-19T00:20:25;4.60;;;0.93;;
54875;SDS011;40764;48.472;8.166;2023-09-19T00:26:26;2.03;;;1.07;;
54875;SDS011;40764;48.472;8.166;2023-09-19T00:32:26;4.90;;;0.93;;
54875;SDS011;40764;48.472;8.166;2023-09-19T00:38:30;1.63;;;0.60;;
54875;SDS011;40764;48.472;8.166;2023-09-19T00:44:31;8.07;;;0.85;;
54875;SDS011;40764;48.472;8.166;2023-09-19T00:50:34;3.67;;;1.20;;
54875;SDS011;40764;48.472;8.166;2023-09-19T00:56:35;7.63;;;1.50;;
54875;SDS011;40764;48.472;8.166;2023-09-19T01:02:38;3.67;;;1.42;;
54875;SDS011;40764;48.472;8.166;2023-09-19T01:08:38;3.70;;;1.30;;
54875;SDS011;40764;48.472;8.166;2023-09-19T01:14:54;2.60;;;1.60;;
54875;SDS011;40764;48.472;8.166;2023-09-19T01:21:03;3.20;;;1.58;;
54875;SDS011;40764;48.472;8.166;2023-09-19T01:40:02;3.03;;;1.10;;
54875;SDS011;40764;48.472;8.166;2023-09-19T01:52:13;5.13;;;2.20;;
54875;SDS011;40764;48.472;8.166;2023-09-19T01:58:17;7.13;;;1.90;;
54875;SDS011;40764;48.472;8.166;2023-09-19T02:04:39;10.15;;;1.38;;
54875;SDS011;40764;48.472;8.166;2023-09-19T02:10:39;3.08;;;1.42;;
54875;SDS011;40764;48.472;8.166;2023-09-19T02:16:41;9.55;;;1.42;;
54875;SDS011;40764;48.472;8.166;2023-09-19T02:22:42;5.00;;;1.40;;
54875;SDS011;40764;48.472;8.166;2023-09-19T02:28:42;5.70;;;2.00;;
54875;SDS011;40764;48.472;8.166;2023-09-19T02:34:42;4.70;;;1.27;;
54875;SDS011;40764;48.472;8.166;2023-09-19T02:40:44;6.97;;;1.77;;
54875;SDS011;40764;48.472;8.166;2023-09-19T02:46:45;2.90;;;1.23;;
54875;SDS011;40764;48.472;8.166;2023-09-19T02:52:45;3.27;;;1.57;;
54875;SDS011;40764;48.472;8.166;2023-09-19T02:58:49;6.97;;;1.65;;
54875;SDS011;40764;48.472;8.166;2023-09-19T03:04:49;6.77;;;2.43;;
54875;SDS011;40764;48.472;8.166;2023-09-19T03:10:51;6.57;;;1.67;;
54875;SDS011;40764;48.472;8.166;2023-09-19T03:16:51;5.78;;;1.65;;
54875;SDS011;40764;48.472;8.166;2023-09-19T03:22:52;3.70;;;1.23;;
54875;SDS011;40764;48.472;8.166;2023-09-19T03:28:53;3.57;;;1.70;;
54875;SDS011;40764;48.472;8.166;2023-09-19T03:34:54;7.03;;;1.60;;
54875;SDS011;40764;48.472;8.166;2023-09-19T03:40:54;7.23;;;2.13;;
54875;SDS011;40764;48.472;8.166;2023-09-19T03:46:54;10.40;;;2.22;;
54875;SDS011;40764;48.472;8.166;2023-09-19T03:58:57;9.40;;;3.22;;
54875;SDS011;40764;48.472;8.166;2023-09-19T04:04:57;3.75;;;1.42;;
54875;SDS011;40764;48.472;8.166;2023-09-19T04:10:57;11.02;;;2.78;;
54875;SDS011;40764;48.472;8.166;2023-09-19T04:16:58;6.65;;;2.42;;
54875;SDS011;40764;48.472;8.166;2023-09-19T04:22:58;11.63;;;2.13;;
54875;SDS011;40764;48.472;8.166;2023-09-19T04:28:59;3.72;;;1.42;;
54875;SDS011;40764;48.472;8.166;2023-09-19T04:35:01;4.85;;;1.13;;
54875;SDS011;40764;48.472;8.166;2023-09-19T04:41:05;3.05;;;1.20;;
54875;SDS011;40764;48.472;8.166;2023-09-19T04:47:05;3.95;;;1.45;;
54875;SDS011;40764;48.472;8.166;2023-09-19T04:53:06;2.50;;;1.20;;
54875;SDS011;40764;48.472;8.166;2023-09-19T04:59:07;12.17;;;3.93;;
54875;SDS011;40764;48.472;8.166;2023-09-19T05:05:07;8.27;;;2.83;;
54875;SDS011;40764;48.472;8.166;2023-09-19T05:11:10;7.40;;;2.08;;
54875;SDS011;40764;48.472;8.166;2023-09-19T05:17:10;6.15;;;2.65;;
54875;SDS011;40764;48.472;8.166;2023-09-19T05:23:11;9.23;;;3.03;;
54875;SDS011;40764;48.472;8.166;2023-09-19T05:29:14;6.38;;;2.00;;
54875;SDS011;40764;48.472;8.166;2023-09-19T05:35:14;4.28;;;1.60;;
54875;SDS011;40764;48.472;8.166;2023-09-19T05:41:14;1.40;;;1.20;;
54875;SDS011;40764;48.472;8.166;2023-09-19T05:47:16;8.18;;;1.00;;
54875;SDS011;40764;48.472;8.166;2023-09-19T05:53:16;7.53;;;2.60;;
54875;SDS011;40764;48.472;8.166;2023-09-19T05:59:19;2.30;;;1.38;;
54875;SDS011;40764;48.472;8.166;2023-09-19T06:05:19;4.93;;;1.47;;
54875;SDS011;40764;48.472;8.166;2023-09-19T06:11:21;4.95;;;1.40;;
54875;SDS011;40764;48.472;8.166;2023-09-19T06:17:23;6.03;;;1.40;;
54875;SDS011;40764;48.472;8.166;2023-09-19T06:23:23;4.28;;;1.35;;
54875;SDS011;40764;48.472;8.166;2023-09-19T06:29:26;2.95;;;1.30;;
54875;SDS011;40764;48.472;8.166;2023-09-19T06:35:26;8.77;;;2.17;;
54875;SDS011;40764;48.472;8.166;2023-09-19T06:41:29;4.97;;;1.80;;
54875;SDS011;40764;48.472;8.166;2023-09-19T06:47:30;9.53;;;2.60;;
54875;SDS011;40764;48.472;8.166;2023-09-19T06:53:33;4.20;;;1.60;;
54875;SDS011;40764;48.472;8.166;2023-09-19T06:59:35;2.45;;;1.27;;
54875;SDS011;40764;48.472;8.166;2023-09-19T07:05:37;3.17;;;1.50;;
54875;SDS011;40764;48.472;8.166;2023-09-19T07:11:39;2.30;;;1.35;;
54875;SDS011;40764;48.472;8.166;2023-09-19T07:17:39;5.10;;;1.67;;
54875;SDS011;40764;48.472;8.166;2023-09-19T07:23:39;3.10;;;1.10;;
54875;SDS011;40764;48.472;8.166;2023-09-19T07:29:40;5.82;;;1.67;;
54875;SDS011;40764;48.472;8.166;2023-09-19T07:35:40;4.88;;;2.72;;
54875;SDS011;40764;48.472;8.166;2023-09-19T07:41:40;3.03;;;1.60;;
54875;SDS011;40764;48.472;8.166;2023-09-19T07:47:45;2.53;;;1.00;;
54875;SDS011;40764;48.472;8.166;2023-09-19T07:53:46;3.65;;;1.42;;
54875;SDS011;40764;48.472;8.166;2023-09-19T07:59:48;3.45;;;1.10;;
54875;SDS011;40764;48.472;8.166;2023-09-19T08:05:48;2.95;;;1.30;;
54875;SDS011;40764;48.472;8.166;2023-09-19T08:11:49;3.87;;;1.27;;
54875;SDS011;40764;48.472;8.166;2023-09-19T08:23:51;4.28;;;1.05;;
54875;SDS011;40764;48.472;8.166;2023-09-19T08:29:51;4.00;;;1.43;;
54875;SDS011;40764;48.472;8.166;2023-09-19T08:35:51;3.33;;;1.08;;
54875;SDS011;40764;48.472;8.166;2023-09-19T08:41:58;7.63;;;1.20;;
54875;SDS011;40764;48.472;8.166;2023-09-19T08:54:03;8.88;;;2.13;;
54875;SDS011;40764;48.472;8.166;2023-09-19T09:00:07;7.10;;;1.50;;
54875;SDS011;40764;48.472;8.166;2023-09-19T09:06:13;3.10;;;2.03;;
54875;SDS011;40764;48.472;8.166;2023-09-19T09:12:16;4.93;;;1.60;;
54875;SDS011;40764;48.472;8.166;2023-09-19T09:18:17;9.83;;;1.43;;
54875;SDS011;40764;48.472;8.166;2023-09-19T09:24:30;3.93;;;1.60;;
54875;SDS011;40764;48.472;8.166;2023-09-19T09:30:34;6.57;;;1.25;;
54875;SDS011;40764;48.472;8.166;2023-09-19T09:36:37;6.50;;;2.55;;
54875;SDS011;40764;48.472;8.166;2023-09-19T09:42:40;2.50;;;1.02;;
54875;SDS011;40764;48.472;8.166;2023-09-19T09:48:41;2.77;;;1.23;;
54875;SDS011;40764;48.472;8.166;2023-09-19T09:55:01;6.10;;;1.42;;
54875;SDS011;40764;48.472;8.166;2023-09-19T10:01:07;5.87;;;1.50;;
54875;SDS011;40764;48.472;8.166;2023-09-19T10:07:11;3.03;;;1.20;;
54875;SDS011;40764;48.472;8.166;2023-09-19T10:13:28;3.22;;;2.03;;
54875;SDS011;40764;48.472;8.166;2023-09-19T10:19:37;5.80;;;2.13;;
54875;SDS011;40764;48.472;8.166;2023-09-19T10:25:38;3.03;;;1.48;;
54875;SDS011;40764;48.472;8.166;2023-09-19T10:31:40;4.32;;;1.70;;
54875;SDS011;40764;48.472;8.166;2023-09-19T10:37:47;2.50;;;1.35;;
54875;SDS011;40764;48.472;8.166;2023-09-19T10:43:51;5.28;;;1.50;;
54875;SDS011;40764;48.472;8.166;2023-09-19T10:49:54;8.27;;;1.40;;
54875;SDS011;40764;48.472;8.166;2023-09-19T10:55:56;2.33;;;1.70;;
54875;SDS011;40764;48.472;8.166;2023-09-19T11:01:59;5.70;;;1.70;;
54875;SDS011;40764;48.472;8.166;2023-09-19T11:08:15;2.00;;;1.25;;
54875;SDS011;40764;48.472;8.166;2023-09-19T11:20:25;5.70;;;2.42;;
54875;SDS011;40764;48.472;8.166;2023-09-19T11:26:42;5.60;;;1.27;;
54875;SDS011;40764;48.472;8.166;2023-09-19T11:39:33;6.20;;;1.75;;
54875;SDS011;40764;48.472;8.166;2023-09-19T11:51:47;5.35;;;1.35;;
54875;SDS011;40764;48.472;8.166;2023-09-19T11:57:54;2.40;;;1.08;;
54875;SDS011;40764;48.472;8.166;2023-09-19T12:03:56;2.45;;;0.90;;
54875;SDS011;40764;48.472;8.166;2023-09-19T12:10:04;3.95;;;1.23;;
54875;SDS011;40764;48.472;8.166;2023-09-19T12:16:11;3.78;;;1.30;;
54875;SDS011;40764;48.472;8.166;2023-09-19T12:22:15;3.47;;;1.15;;
54875;SDS011;40764;48.472;8.166;2023-09-19T12:28:16;6.33;;;1.40;;
54875;SDS011;40764;48.472;8.166;2023-09-19T12:34:26;1.80;;;1.00;;
54875;SDS011;40764;48.472;8.166;2023-09-19T12:40:27;3.67;;;0.95;;
54875;SDS011;40764;48.472;8.166;2023-09-19T12:46:28;3.00;;;0.97;;
54875;SDS011;40764;48.472;8.166;2023-09-19T12:52:33;2.88;;;1.08;;
54875;SDS011;40764;48.472;8.166;2023-09-19T13:04:55;1.48;;;1.05;;
54875;SDS011;40764;48.472;8.166;2023-09-19T13:17:13;2.65;;;1.10;;
54875;SDS011;40764;48.472;8.166;2023-09-19T13:23:26;4.50;;;0.80;;
54875;SDS011;40764;48.472;8.166;2023-09-19T13:29:27;3.30;;;1.00;;
54875;SDS011;40764;48.472;8.166;2023-09-19T13:35:28;5.47;;;1.00;;
54875;SDS011;40764;48.472;8.166;2023-09-19T13:41:29;1.10;;;0.75;;
54875;SDS011;40764;48.472;8.166;2023-09-19T13:47:30;8.05;;;1.20;;
54875;SDS011;40764;48.472;8.166;2023-09-19T13:53:32;1.38;;;0.88;;
54875;SDS011;40764;48.472;8.166;2023-09-19T13:59:33;3.67;;;0.90;;
54875;SDS011;40764;48.472;8.166;2023-09-19T14:05:33;4.43;;;1.30;;
54875;SDS011;40764;48.472;8.166;2023-09-19T14:11:33;1.98;;;1.20;;
54875;SDS011;40764;48.472;8.166;2023-09-19T14:17:34;2.22;;;0.80;;
54875;SDS011;40764;48.472;8.166;2023-09-19T14:23:37;3.67;;;0.77;;
54875;SDS011;40764;48.472;8.166;2023-09-19T14:29:38;1.95;;;0.90;;
54875;SDS011;40764;48.472;8.166;2023-09-19T14:35:39;4.57;;;1.00;;
54875;SDS011;40764;48.472;8.166;2023-09-19T14:41:39;2.07;;;0.80;;
54875;SDS011;40764;48.472;8.166;2023-09-19T14:47:40;1.85;;;0.85;;
54875;SDS011;40764;48.472;8.166;2023-09-19T14:53:40;0.73;;;0.63;;
54875;SDS011;40764;48.472;8.166;2023-09-19T14:59:41;3.33;;;0.85;;
54875;SDS011;40764;48.472;8.166;2023-09-19T15:05:41;1.07;;;0.73;;
54875;SDS011;40764;48.472;8.166;2023-09-19T15:11:42;5.00;;;0.90;;
54875;SDS011;40764;48.472;8.166;2023-09-19T15:17:42;2.42;;;0.75;;
54875;SDS011;40764;48.472;8.166;2023-09-19T15:23:43;3.50;;;1.17;;
54875;SDS011;40764;48.472;8.166;2023-09-19T15:29:43;13.17;;;3.77;;
54875;SDS011;40764;48.472;8.166;2023-09-19T15:35:44;2.63;;;1.07;;
54875;SDS011;40764;48.472;8.166;2023-09-19T15:41:45;4.65;;;1.35;;
54875;SDS011;40764;48.472;8.166;2023-09-19T15:47:49;1.70;;;0.88;;
54875;SDS011;40764;48.472;8.166;2023-09-19T15:53:50;5.10;;;1.00;;
54875;SDS011;40764;48.472;8.166;2023-09-19T15:59:52;2.42;;;0.88;;
54875;SDS011;40764;48.472;8.166;2023-09-19T16:05:52;3.22;;;1.33;;
54875;SDS011;40764;48.472;8.166;2023-09-19T16:11:53;1.55;;;0.82;;
54875;SDS011;40764;48.472;8.166;2023-09-19T16:17:53;3.50;;;0.98;;
54875;SDS011;40764;48.472;8.166;2023-09-19T16:23:55;3.10;;;0.90;;
54875;SDS011;40764;48.472;8.166;2023-09-19T16:29:59;3.28;;;0.90;;
54875;SDS011;40764;48.472;8.166;2023-09-19T16:36:00;2.40;;;0.98;;
54875;SDS011;40764;48.472;8.166;2023-09-19T16:42:01;2.85;;;1.20;;
54875;SDS011;40764;48.472;8.166;2023-09-19T16:48:01;2.63;;;1.13;;
54875;SDS011;40764;48.472;8.166;2023-09-19T16:54:01;1.42;;;1.00;;
54875;SDS011;40764;48.472;8.166;2023-09-19T17:00:03;1.85;;;1.10;;
54875;SDS011;40764;48.472;8.166;2023-09-19T17:06:03;7.00;;;0.98;;
54875;SDS011;40764;48.472;8.166;2023-09-19T17:12:04;1.47;;;1.00;;
54875;SDS011;40764;48.472;8.166;2023-09-19T17:18:05;2.00;;;1.23;;
54875;SDS011;40764;48.472;8.166;2023-09-19T17:24:06;2.27;;;1.47;;
54875;SDS011;40764;48.472;8.166;2023-09-19T17:30:08;4.38;;;1.38;;
54875;SDS011;40764;48.472;8.166;2023-09-19T17:36:15;9.85;;;1.63;;
54875;SDS011;40764;48.472;8.166;2023-09-19T17:42:20;4.47;;;2.95;;
54875;SDS011;40764;48.472;8.166;2023-09-19T17:48:21;3.73;;;1.60;;
54875;SDS011;40764;48.472;8.166;2023-09-19T17:54:21;3.00;;;1.33;;
54875;SDS011;40764;48.472;8.166;2023-09-19T18:00:23;2.10;;;1.40;;
54875;SDS011;40764;48.472;8.166;2023-09-19T18:06:24;2.67;;;1.73;;
54875;SDS011;40764;48.472;8.166;2023-09-19T18:12:25;7.13;;;1.58;;
54875;SDS011;40764;48.472;8.166;2023-09-19T18:18:26;3.80;;;1.65;;
54875;SDS011;40764;48.472;8.166;2023-09-19T18:24:27;10.77;;;2.55;;
54875;SDS011;40764;48.472;8.166;2023-09-19T18:30:27;3.17;;;1.67;;
54875;SDS011;40764;48.472;8.166;2023-09-19T18:36:28;4.82;;;1.80;;
54875;SDS011;40764;48.472;8.166;2023-09-19T18:42:28;4.25;;;2.10;;
54875;SDS011;40764;48.472;8.166;2023-09-19T18:48:29;7.17;;;1.93;;
54875;SDS011;40764;48.472;8.166;2023-09-19T18:54:29;4.65;;;2.35;;
54875;SDS011;40764;48.472;8.166;2023-09-19T19:00:29;7.95;;;2.08;;
54875;SDS011;40764;48.472;8.166;2023-09-19T19:06:30;3.95;;;2.65;;
54875;SDS011;40764;48.472;8.166;2023-09-19T19:12:33;6.57;;;3.20;;
54875;SDS011;40764;48.472;8.166;2023-09-19T19:18:35;4.05;;;2.60;;
54875;SDS011;40764;48.472;8.166;2023-09-19T19:24:35;7.30;;;2.87;;
54875;SDS011;40764;48.472;8.166;2023-09-19T19:30:42;6.47;;;2.00;;
54875;SDS011;40764;48.472;8.166;2023-09-19T19:36:43;8.02;;;2.28;;
54875;SDS011;40764;48.472;8.166;2023-09-19T19:42:44;2.80;;;2.13;;
54875;SDS011;40764;48.472;8.166;2023-09-19T19:48:48;8.80;;;2.13;;
54875;SDS011;40764;48.472;8.166;2023-09-19T19:54:51;3.75;;;2.20;;
54875;SDS011;40764;48.472;8.166;2023-09-19T20:00:55;5.83;;;1.90;;
54875;SDS011;40764;48.472;8.166;2023-09-19T20:06:56;4.40;;;2.00;;
54875;SDS011;40764;48.472;8.166;2023-09-19T20:12:56;5.73;;;2.50;;
54875;SDS011;40764;48.472;8.166;2023-09-19T20:18:58;7.00;;;2.47;;
54875;SDS011;40764;48.472;8.166;2023-09-19T20:24:59;3.42;;;2.10;;
54875;SDS011;40764;48.472;8.166;2023-09-19T20:31:09;7.40;;;2.67;;
54875;SDS011;40764;48.472;8.166;2023-09-19T20:37:10;5.03;;;2.60;;
54875;SDS011;40764;48.472;8.166;2023-09-19T20:43:11;2.77;;;2.00;;
54875;SDS011;40764;48.472;8.166;2023-09-19T20:49:11;6.40;;;2.60;;
54875;SDS011;40764;48.472;8.166;2023-09-19T20:55:12;5.27;;;2.67;;
54875;SDS011;40764;48.472;8.166;2023-09-19T21:01:12;6.93;;;2.40;;
54875;SDS011;40764;48.472;8.166;2023-09-19T21:07:12;5.30;;;2.77;;
54875;SDS011;40764;48.472;8.166;2023-09-19T21:13:13;7.05;;;2.08;;
54875;SDS011;40764;48.472;8.166;2023-09-19T21:19:13;6.68;;;2.53;;
54875;SDS011;40764;48.472;8.166;2023-09-19T21:25:14;6.43;;;2.57;;
54875;SDS011;40764;48.472;8.166;2023-09-19T21:31:14;3.30;;;2.23;;
54875;SDS011;40764;48.472;8.166;2023-09-19T21:37:14;7.43;;;2.47;;
54875;SDS011;40764;48.472;8.166;2023-09-19T21:43:15;3.03;;;1.70;;
54875;SDS011;40764;48.472;8.166;2023-09-19T21:49:16;6.53;;;2.30;;
54875;SDS011;40764;48.472;8.166;2023-09-19T21:55:17;9.00;;;2.30;;
54875;SDS011;40764;48.472;8.166;2023-09-19T22:01:18;9.80;;;2.20;;
54875;SDS011;40764;48.472;8.166;2023-09-19T22:07:22;5.85;;;2.20;;
54875;SDS011;40764;48.472;8.166;2023-09-19T22:13:26;4.28;;;2.10;;
54875;SDS011;40764;48.472;8.166;2023-09-19T22:19:28;7.63;;;2.15;;
54875;SDS011;40764;48.472;8.166;2023-09-19T22:25:29;7.75;;;2.15;;
54875;SDS011;40764;48.472;8.166;2023-09-19T22:31:36;7.13;;;2.13;;
54875;SDS011;40764;48.472;8.166;2023-09-19T22:37:42;3.58;;;2.35;;
54875;SDS011;40764;48.472;8.166;2023-09-19T22:43:42;5.15;;;2.72;;
54875;SDS011;40764;48.472;8.166;2023-09-19T22:49:46;5.38;;;2.53;;
54875;SDS011;40764;48.472;8.166;2023-09-19T22:55:48;4.68;;;2.08;;
54875;SDS011;40764;48.472;8.166;2023-09-19T23:01:49;4.70;;;2.50;;
54875;SDS011;40764;48.472;8.166;2023-09-19T23:07:50;7.50;;;2.87;;
54875;SDS011;40764;48.472;8.166;2023-09-19T23:13:57;8.98;;;2.50;;
54875;SDS011;40764;48.472;8.166;2023-09-19T23:19:58;7.30;;;2.43;;
54875;SDS011;40764;48.472;8.166;2023-09-19T23:26:09;8.60;;;2.53;;
54875;SDS011;40764;48.472;8.166;2023-09-19T23:32:11;4.53;;;2.05;;
54875;SDS011;40764;48.472;8.166;2023-09-19T23:38:14;5.90;;;2.28;;
54875;SDS011;40764;48.472;8.166;2023-09-19T23:44:15;8.23;;;2.55;;
54875;SDS011;40764;48.472;8.166;2023-09-19T23:50:15;6.75;;;2.17;;
54875;SDS011;40764;48.472;8.166;2023-09-19T23:56:16;3.80;;;2.37;;
